createdAt,value
2017-08-24T00:01:15.211Z,3.70
2017-08-24T00:03:42.663Z,3.30
2017-08-24T00:06:10.106Z,2.93
2017-08-24T00:08:37.570Z,3.13
2017-08-24T00:11:05.017Z,3.23
2017-08-24T00:13:32.459Z,3.77
2017-08-24T00:15:59.886Z,3.63
2017-08-24T00:18:27.350Z,3.70
2017-08-24T00:20:54.791Z,3.87
2017-08-24T00:23:22.223Z,3.33
2017-08-24T00:25:49.670Z,3.40
2017-08-24T00:28:17.106Z,3.17
2017-08-24T00:30:44.559Z,3.60
2017-08-24T00:33:12.006Z,3.23
2017-08-24T00:35:39.461Z,3.57
2017-08-24T00:38:06.894Z,3.77
2017-08-24T00:40:34.344Z,3.47
2017-08-24T00:43:01.784Z,3.30
2017-08-24T00:45:29.227Z,3.70
2017-08-24T00:47:56.667Z,3.90
2017-08-24T00:50:24.106Z,3.50
2017-08-24T00:52:51.555Z,3.60
2017-08-24T00:55:19.012Z,3.70
2017-08-24T00:57:46.442Z,4.23
2017-08-24T01:00:13.882Z,3.90
2017-08-24T01:02:41.326Z,4.30
2017-08-24T01:05:08.790Z,4.13
2017-08-24T01:07:36.212Z,4.00
2017-08-24T01:10:03.662Z,3.90
2017-08-24T01:12:31.115Z,4.00
2017-08-24T01:14:58.560Z,4.20
2017-08-24T01:17:26.002Z,4.03
2017-08-24T01:19:53.443Z,4.47
2017-08-24T01:22:20.891Z,4.07
2017-08-24T01:24:48.335Z,4.33
2017-08-24T01:27:15.779Z,4.13
2017-08-24T01:29:43.215Z,4.00
2017-08-24T01:32:10.658Z,3.80
2017-08-24T01:34:38.104Z,4.00
2017-08-24T01:37:05.561Z,4.50
2017-08-24T01:39:33.005Z,3.87
2017-08-24T01:42:00.452Z,4.17
2017-08-24T01:44:27.929Z,3.93
2017-08-24T01:46:56.287Z,3.80
2017-08-24T01:49:23.730Z,3.80
2017-08-24T01:51:51.170Z,4.90
2017-08-24T01:54:18.611Z,3.83
2017-08-24T01:56:46.070Z,4.30
2017-08-24T01:59:13.524Z,3.67
2017-08-24T02:01:40.967Z,4.10
2017-08-24T02:04:08.415Z,4.30
2017-08-24T02:06:35.856Z,3.87
2017-08-24T02:09:03.306Z,3.60
2017-08-24T02:11:30.740Z,4.20
2017-08-24T02:13:58.187Z,4.07
2017-08-24T02:16:26.396Z,3.77
2017-08-24T02:18:53.857Z,3.90
2017-08-24T02:21:21.294Z,4.03
2017-08-24T02:23:48.736Z,4.03
2017-08-24T02:26:16.172Z,4.20
2017-08-24T02:28:43.614Z,3.87
2017-08-24T02:31:11.056Z,4.23
2017-08-24T02:33:38.512Z,3.93
2017-08-24T02:36:05.951Z,4.10
2017-08-24T02:38:33.402Z,4.27
2017-08-24T02:41:00.860Z,4.10
2017-08-24T02:43:28.314Z,4.23
2017-08-24T02:45:55.751Z,4.27
2017-08-24T02:48:23.196Z,4.33
2017-08-24T02:50:50.636Z,4.40
2017-08-24T02:53:18.071Z,4.00
2017-08-24T02:55:45.519Z,4.63
2017-08-24T02:58:12.951Z,3.90
2017-08-24T03:00:40.407Z,4.33
2017-08-24T03:03:07.846Z,4.13
2017-08-24T03:05:35.286Z,4.47
2017-08-24T03:08:02.727Z,4.27
2017-08-24T03:10:30.170Z,4.07
2017-08-24T03:12:57.625Z,4.10
2017-08-24T03:15:25.071Z,3.80
2017-08-24T03:17:52.523Z,4.30
2017-08-24T03:20:19.963Z,3.57
2017-08-24T03:22:47.412Z,3.87
2017-08-24T03:25:14.864Z,4.07
2017-08-24T03:27:42.299Z,3.60
2017-08-24T03:30:09.744Z,3.70
2017-08-24T03:32:37.950Z,4.07
2017-08-24T03:35:05.420Z,4.50
2017-08-24T03:37:32.864Z,4.10
2017-08-24T03:40:00.302Z,4.53
2017-08-24T03:42:27.747Z,4.33
2017-08-24T03:44:55.191Z,3.90
2017-08-24T03:47:22.638Z,4.00
2017-08-24T03:49:50.078Z,3.80
2017-08-24T03:52:17.524Z,3.63
2017-08-24T03:54:44.970Z,4.20
2017-08-24T03:57:12.415Z,3.90
2017-08-24T03:59:39.854Z,3.80
2017-08-24T04:02:07.303Z,3.70
2017-08-24T04:04:34.748Z,4.83
2017-08-24T04:07:02.208Z,3.50
2017-08-24T04:09:29.655Z,3.93
2017-08-24T04:11:57.107Z,4.60
2017-08-24T04:14:24.538Z,4.60
2017-08-24T04:16:51.987Z,4.47
2017-08-24T04:19:19.426Z,4.07
2017-08-24T04:21:46.871Z,4.27
2017-08-24T04:24:14.304Z,3.70
2017-08-24T04:26:41.766Z,4.30
2017-08-24T04:29:09.212Z,4.20
2017-08-24T04:31:36.651Z,4.67
2017-08-24T04:34:04.103Z,4.07
2017-08-24T04:36:31.543Z,3.90
2017-08-24T04:38:58.994Z,4.50
2017-08-24T04:41:26.447Z,4.17
2017-08-24T04:43:53.899Z,4.30
2017-08-24T04:46:21.335Z,4.30
2017-08-24T04:48:48.790Z,4.40
2017-08-24T04:51:16.222Z,4.20
2017-08-24T04:53:43.666Z,4.40
2017-08-24T04:56:11.110Z,4.83
2017-08-24T04:58:38.550Z,4.37
2017-08-24T05:01:06.006Z,4.20
2017-08-24T05:03:33.447Z,4.60
2017-08-24T05:06:00.895Z,4.60
2017-08-24T05:08:28.351Z,4.40
2017-08-24T05:10:55.791Z,3.83
2017-08-24T05:13:23.233Z,4.40
2017-08-24T05:15:50.680Z,4.30
2017-08-24T05:18:18.120Z,4.60
2017-08-24T05:20:45.568Z,3.90
2017-08-24T05:23:13.007Z,4.20
2017-08-24T05:25:40.455Z,4.50
2017-08-24T05:28:07.900Z,4.87
2017-08-24T05:30:35.352Z,4.30
2017-08-24T05:33:02.796Z,5.13
2017-08-24T05:35:30.247Z,5.30
2017-08-24T05:37:57.687Z,5.70
2017-08-24T05:40:25.127Z,5.10
2017-08-24T05:42:52.571Z,4.90
2017-08-24T05:45:20.010Z,5.10
2017-08-24T05:47:47.443Z,5.23
2017-08-24T05:50:14.906Z,4.80
2017-08-24T05:52:42.354Z,5.33
2017-08-24T05:55:09.799Z,4.70
2017-08-24T05:57:37.250Z,5.30
2017-08-24T06:00:04.681Z,4.90
2017-08-24T06:02:32.131Z,5.63
2017-08-24T06:04:59.576Z,5.67
2017-08-24T06:07:27.039Z,5.50
2017-08-24T06:09:54.486Z,5.93
2017-08-24T06:12:21.928Z,5.97
2017-08-24T06:14:49.357Z,6.17
2017-08-24T06:17:16.811Z,5.80
2017-08-24T06:19:44.263Z,6.17
2017-08-24T06:22:11.698Z,5.80
2017-08-24T06:24:39.133Z,5.90
2017-08-24T06:27:06.572Z,5.00
2017-08-24T06:29:34.011Z,5.50
2017-08-24T06:32:01.452Z,5.80
2017-08-24T06:34:28.891Z,5.70
2017-08-24T06:36:56.333Z,5.63
2017-08-24T06:39:23.775Z,4.80
2017-08-24T06:41:51.216Z,5.30
2017-08-24T06:44:18.651Z,5.90
2017-08-24T06:46:46.099Z,6.33
2017-08-24T06:49:13.545Z,6.10
2017-08-24T06:51:40.989Z,5.73
2017-08-24T06:54:08.430Z,6.33
2017-08-24T06:56:35.870Z,5.90
2017-08-24T06:59:03.318Z,5.97
2017-08-24T07:01:30.758Z,5.40
2017-08-24T07:03:58.186Z,6.00
2017-08-24T07:06:25.640Z,5.70
2017-08-24T07:08:53.079Z,5.50
2017-08-24T07:11:20.637Z,5.40
2017-08-24T07:13:48.835Z,5.70
2017-08-24T07:16:16.279Z,5.70
2017-08-24T07:18:43.723Z,6.10
2017-08-24T07:21:11.179Z,6.23
2017-08-24T07:23:38.623Z,6.20
2017-08-24T07:26:06.058Z,5.47
2017-08-24T07:28:34.263Z,5.63
2017-08-24T07:31:01.720Z,6.30
2017-08-24T07:33:29.160Z,5.67
2017-08-24T07:35:56.619Z,6.80
2017-08-24T07:38:24.047Z,5.60
2017-08-24T07:40:52.027Z,5.33
2017-08-24T07:43:19.558Z,5.63
2017-08-24T07:45:47.006Z,5.67
2017-08-24T07:48:14.466Z,6.17
2017-08-24T07:50:41.923Z,6.43
2017-08-24T07:53:09.379Z,5.60
2017-08-24T07:55:36.906Z,6.73
2017-08-24T07:58:04.359Z,8.00
2017-08-24T08:00:31.794Z,6.80
2017-08-24T08:02:59.235Z,6.70
2017-08-24T08:05:26.674Z,7.90
2017-08-24T08:07:54.117Z,6.97
2017-08-24T08:10:21.558Z,9.77
2017-08-24T08:12:49.010Z,7.20
2017-08-24T08:15:16.458Z,9.37
2017-08-24T08:17:43.902Z,8.90
2017-08-24T08:20:11.342Z,9.70
2017-08-24T08:22:38.814Z,11.47
2017-08-24T08:25:06.275Z,11.07
2017-08-24T08:27:33.734Z,11.07
2017-08-24T08:30:01.190Z,11.50
2017-08-24T08:32:28.650Z,11.50
2017-08-24T08:34:56.104Z,11.60
2017-08-24T08:37:23.557Z,11.37
2017-08-24T08:39:51.011Z,11.00
2017-08-24T08:42:18.466Z,11.63
2017-08-24T08:44:45.990Z,10.70
2017-08-24T08:47:13.409Z,10.57
2017-08-24T08:49:40.835Z,10.90
2017-08-24T08:52:08.291Z,9.83
2017-08-24T08:54:35.746Z,9.60
2017-08-24T08:57:03.182Z,9.17
2017-08-24T08:59:30.631Z,9.73
2017-08-24T09:01:58.065Z,9.80
2017-08-24T09:04:25.526Z,9.40
2017-08-24T09:06:52.964Z,9.10
2017-08-24T09:09:20.406Z,9.10
2017-08-24T09:11:47.850Z,7.77
2017-08-24T09:14:15.296Z,8.80
2017-08-24T09:16:42.823Z,9.00
2017-08-24T09:19:10.259Z,9.57
2017-08-24T09:21:37.703Z,8.53
2017-08-24T09:24:05.142Z,7.67
2017-08-24T09:26:32.586Z,8.20
2017-08-24T09:29:00.031Z,7.73
2017-08-24T09:31:27.486Z,7.70
2017-08-24T09:33:54.928Z,6.70
2017-08-24T09:36:22.370Z,7.30
2017-08-24T09:38:49.812Z,7.27
2017-08-24T09:41:17.264Z,6.87
2017-08-24T09:43:44.702Z,6.03
2017-08-24T09:46:12.147Z,6.70
2017-08-24T09:48:39.581Z,6.40
2017-08-24T09:51:07.052Z,6.40
2017-08-24T09:53:34.503Z,6.37
2017-08-24T09:56:01.958Z,6.57
2017-08-24T09:58:29.408Z,7.33
2017-08-24T10:00:56.856Z,6.23
2017-08-24T10:03:25.135Z,6.67
2017-08-24T10:05:52.567Z,6.70
2017-08-24T10:08:20.003Z,6.33
2017-08-24T10:10:47.439Z,6.67
2017-08-24T10:13:14.882Z,7.40
2017-08-24T10:15:42.848Z,6.97
2017-08-24T10:18:10.339Z,7.03
2017-08-24T10:20:37.774Z,7.17
2017-08-24T10:23:05.218Z,7.80
2017-08-24T10:25:32.667Z,7.37
2017-08-24T10:28:00.118Z,7.13
2017-08-24T10:30:27.595Z,6.70
2017-08-24T10:32:54.998Z,6.53
2017-08-24T10:35:22.430Z,6.30
2017-08-24T10:37:49.872Z,6.10
2017-08-24T10:40:17.310Z,6.33
2017-08-24T10:42:44.763Z,6.73
2017-08-24T10:45:12.202Z,6.87
2017-08-24T10:47:39.658Z,6.20
2017-08-24T10:50:07.114Z,6.60
2017-08-24T10:52:34.568Z,6.20
2017-08-24T10:55:02.007Z,8.00
2017-08-24T10:57:29.446Z,6.50
2017-08-24T10:59:57.662Z,6.00
2017-08-24T11:02:25.110Z,6.60
2017-08-24T11:04:52.669Z,6.80
2017-08-24T11:07:20.126Z,7.23
2017-08-24T11:09:47.767Z,6.80
2017-08-24T11:12:15.198Z,7.00
2017-08-24T11:14:42.647Z,7.50
2017-08-24T11:17:10.093Z,7.60
2017-08-24T11:19:37.539Z,6.30
2017-08-24T11:22:04.978Z,6.97
2017-08-24T11:24:32.456Z,8.13
2017-08-24T11:26:59.890Z,8.00
2017-08-24T11:29:27.335Z,6.87
2017-08-24T11:31:54.795Z,7.07
2017-08-24T11:34:22.250Z,6.93
2017-08-24T11:36:49.683Z,7.03
2017-08-24T11:39:17.131Z,7.60
2017-08-24T11:41:44.584Z,6.90
2017-08-24T11:44:12.022Z,6.93
2017-08-24T11:46:39.473Z,7.10
2017-08-24T11:49:06.902Z,6.10
2017-08-24T11:51:34.339Z,6.93
2017-08-24T11:54:01.778Z,7.63
2017-08-24T11:56:29.220Z,7.20
2017-08-24T11:58:56.659Z,6.87
2017-08-24T12:01:24.098Z,6.27
2017-08-24T12:03:51.555Z,6.80
2017-08-24T12:06:18.988Z,7.23
2017-08-24T12:08:46.431Z,6.63
2017-08-24T12:11:13.874Z,7.13
2017-08-24T12:13:41.337Z,7.37
2017-08-24T12:16:08.786Z,7.57
2017-08-24T12:18:36.225Z,6.97
2017-08-24T12:21:03.674Z,7.13
2017-08-24T12:23:31.126Z,6.80
2017-08-24T12:25:58.558Z,6.80
2017-08-24T12:28:25.999Z,6.00
2017-08-24T12:30:53.451Z,6.80
2017-08-24T12:33:20.895Z,6.07
2017-08-24T12:35:48.351Z,5.83
2017-08-24T12:38:15.791Z,6.30
2017-08-24T12:40:43.247Z,6.37
2017-08-24T12:43:11.372Z,5.87
2017-08-24T12:45:38.846Z,6.40
2017-08-24T12:48:06.286Z,5.43
2017-08-24T12:50:33.751Z,6.20
2017-08-24T12:53:01.192Z,6.30
2017-08-24T12:55:28.635Z,5.87
2017-08-24T12:57:56.084Z,6.90
2017-08-24T13:00:23.627Z,5.87
2017-08-24T13:02:51.074Z,5.63
2017-08-24T13:05:18.499Z,5.77
2017-08-24T13:07:45.944Z,5.10
2017-08-24T13:10:13.374Z,5.50
2017-08-24T13:12:40.813Z,4.90
2017-08-24T13:15:08.262Z,5.50
2017-08-24T13:17:35.716Z,5.30
2017-08-24T13:20:03.142Z,5.30
2017-08-24T13:22:30.611Z,4.57
2017-08-24T13:24:58.051Z,6.10
2017-08-24T13:27:25.495Z,5.73
2017-08-24T13:29:52.932Z,5.50
2017-08-24T13:32:20.388Z,5.00
2017-08-24T13:34:47.834Z,5.20
2017-08-24T13:37:15.277Z,6.40
2017-08-24T13:39:42.723Z,5.50
2017-08-24T13:42:10.179Z,5.17
2017-08-24T13:44:37.618Z,5.60
2017-08-24T13:47:05.095Z,5.40
2017-08-24T13:49:32.534Z,5.53
2017-08-24T13:51:59.975Z,5.10
2017-08-24T13:54:27.726Z,5.30
2017-08-24T13:56:55.171Z,5.70
2017-08-24T13:59:22.611Z,5.50
2017-08-24T14:01:50.052Z,5.50
2017-08-24T14:04:17.504Z,5.10
2017-08-24T14:06:44.948Z,4.93
2017-08-24T14:09:12.387Z,5.27
2017-08-24T14:11:39.823Z,5.47
2017-08-24T14:14:07.269Z,4.87
2017-08-24T14:16:34.703Z,5.70
2017-08-24T14:19:02.150Z,5.40
2017-08-24T14:21:29.589Z,5.50
2017-08-24T14:23:57.038Z,5.20
2017-08-24T14:26:24.478Z,4.93
2017-08-24T14:28:52.296Z,5.07
2017-08-24T14:31:20.064Z,4.87
2017-08-24T14:33:47.526Z,4.47
2017-08-24T14:36:14.970Z,5.77
2017-08-24T14:38:42.401Z,4.90
2017-08-24T14:41:09.846Z,5.50
2017-08-24T14:43:37.283Z,5.00
2017-08-24T14:46:04.731Z,4.90
2017-08-24T14:48:32.167Z,4.77
2017-08-24T14:50:59.612Z,4.90
2017-08-24T14:53:27.047Z,4.53
2017-08-24T14:55:54.498Z,4.97
2017-08-24T14:58:21.938Z,4.40
2017-08-24T15:00:49.392Z,3.93
2017-08-24T15:03:16.822Z,4.70
2017-08-24T15:05:44.305Z,4.40
2017-08-24T15:08:11.738Z,4.53
2017-08-24T15:10:39.221Z,4.40
2017-08-24T15:13:06.674Z,4.33
2017-08-24T15:15:34.130Z,4.53
2017-08-24T15:18:01.570Z,3.90
2017-08-24T15:20:29.007Z,4.00
2017-08-24T15:22:57.224Z,4.73
2017-08-24T15:25:24.676Z,3.70
2017-08-24T15:27:52.132Z,4.07
2017-08-24T15:30:19.571Z,4.50
2017-08-24T15:32:47.022Z,12.03
2017-08-24T15:35:14.460Z,3.70
2017-08-24T15:37:42.675Z,3.87
2017-08-24T15:40:10.127Z,3.60
2017-08-24T15:42:37.595Z,3.70
2017-08-24T15:45:05.039Z,3.50
2017-08-24T15:47:32.478Z,3.70
2017-08-24T15:49:59.916Z,3.70
2017-08-24T15:52:28.126Z,3.70
2017-08-24T15:54:55.576Z,3.67
2017-08-24T15:57:23.020Z,3.37
2017-08-24T15:59:56.010Z,3.50
2017-08-24T16:02:23.554Z,3.50
2017-08-24T16:04:51.764Z,3.70
2017-08-24T16:07:19.214Z,3.17
2017-08-24T16:09:46.655Z,3.77
2017-08-24T16:12:14.221Z,3.80
2017-08-24T16:14:49.923Z,3.53
2017-08-24T16:17:19.026Z,3.80
2017-08-24T16:19:46.746Z,3.63
2017-08-24T16:22:14.509Z,3.57
2017-08-24T16:24:41.987Z,3.83
2017-08-24T16:27:09.774Z,3.80
2017-08-24T16:29:37.591Z,3.70
2017-08-24T16:32:05.062Z,4.00
2017-08-24T16:34:32.506Z,3.87
2017-08-24T16:36:59.954Z,4.00
2017-08-24T16:39:27.412Z,3.77
2017-08-24T16:41:54.850Z,4.00
2017-08-24T16:44:22.292Z,4.20
2017-08-24T16:46:49.727Z,3.50
2017-08-24T16:49:17.182Z,2.93
2017-08-24T16:51:44.618Z,3.90
2017-08-24T16:54:12.079Z,3.63
2017-08-24T16:56:39.526Z,4.57
2017-08-24T16:59:06.982Z,4.17
2017-08-24T17:01:34.533Z,3.30
2017-08-24T17:04:02.004Z,3.70
2017-08-24T17:06:29.450Z,3.87
2017-08-24T17:08:56.967Z,3.93
2017-08-24T17:11:24.442Z,3.17
2017-08-24T17:13:51.968Z,3.27
2017-08-24T17:16:19.758Z,3.23
2017-08-24T17:18:47.190Z,3.40
2017-08-24T17:21:14.630Z,3.57
2017-08-24T17:23:42.066Z,3.20
2017-08-24T17:26:09.515Z,3.60
2017-08-24T17:28:36.955Z,3.57
2017-08-24T17:31:04.414Z,3.67
2017-08-24T17:33:31.854Z,3.50
2017-08-24T17:35:59.311Z,3.30
2017-08-24T17:38:26.743Z,3.20
2017-08-24T17:40:54.195Z,3.00
2017-08-24T17:43:21.630Z,3.13
2017-08-24T17:45:49.071Z,3.27
2017-08-24T17:48:16.509Z,2.50
2017-08-24T17:50:43.950Z,3.27
2017-08-24T17:53:11.387Z,2.67
2017-08-24T17:55:38.835Z,2.90
2017-08-24T17:58:06.270Z,2.90
2017-08-24T18:00:33.730Z,2.20
2017-08-24T18:03:01.944Z,2.53
2017-08-24T18:05:29.371Z,2.33
2017-08-24T18:07:56.825Z,2.60
2017-08-24T18:10:24.259Z,2.57
2017-08-24T18:12:51.699Z,2.50
2017-08-24T18:15:19.142Z,2.30
2017-08-24T18:17:46.582Z,2.10
2017-08-24T18:20:14.022Z,2.30
2017-08-24T18:22:41.466Z,2.47
2017-08-24T18:25:08.906Z,2.23
2017-08-24T18:27:36.358Z,2.40
2017-08-24T18:30:03.801Z,2.87
2017-08-24T18:32:31.242Z,3.43
2017-08-24T18:34:58.685Z,4.80
2017-08-24T18:37:26.143Z,4.17
2017-08-24T18:39:53.584Z,3.20
2017-08-24T18:42:21.043Z,3.33
2017-08-24T18:44:48.476Z,3.30
2017-08-24T18:47:15.910Z,3.73
2017-08-24T18:49:43.400Z,3.97
2017-08-24T18:52:10.801Z,3.00
2017-08-24T18:54:38.243Z,3.93
2017-08-24T18:57:05.686Z,3.27
2017-08-24T18:59:33.134Z,3.17
2017-08-24T19:02:00.589Z,4.70
2017-08-24T19:04:28.019Z,4.40
2017-08-24T19:06:55.469Z,4.70
2017-08-24T19:09:22.908Z,4.33
2017-08-24T19:11:50.347Z,4.60
2017-08-24T19:14:17.790Z,3.97
2017-08-24T19:16:45.237Z,3.80
2017-08-24T19:19:12.683Z,3.70
2017-08-24T19:21:40.122Z,3.63
2017-08-24T19:24:07.562Z,3.07
2017-08-24T19:26:34.997Z,2.80
2017-08-24T19:29:02.438Z,3.90
2017-08-24T19:31:29.878Z,4.07
2017-08-24T19:33:57.338Z,3.43
2017-08-24T19:36:24.779Z,3.23
2017-08-24T19:38:52.223Z,3.50
2017-08-24T19:41:19.671Z,3.30
2017-08-24T19:43:47.111Z,2.93
2017-08-24T19:46:14.657Z,3.03
2017-08-24T19:48:42.109Z,3.70
2017-08-24T19:51:09.550Z,3.50
2017-08-24T19:53:36.990Z,4.10
2017-08-24T19:56:04.436Z,4.73
2017-08-24T19:58:31.881Z,4.60
2017-08-24T20:00:59.318Z,4.00
2017-08-24T20:03:26.755Z,4.13
2017-08-24T20:05:54.194Z,3.70
2017-08-24T20:08:21.634Z,4.20
2017-08-24T20:10:49.082Z,3.40
2017-08-24T20:13:16.527Z,4.63
2017-08-24T20:15:43.974Z,3.90
2017-08-24T20:18:11.422Z,3.60
2017-08-24T20:20:38.856Z,3.60
2017-08-24T20:23:06.310Z,3.10
2017-08-24T20:25:33.742Z,3.23
2017-08-24T20:28:01.187Z,3.07
2017-08-24T20:30:28.632Z,3.17
2017-08-24T20:32:56.103Z,3.60
2017-08-24T20:35:23.564Z,3.10
2017-08-24T20:37:51.014Z,4.03
2017-08-24T20:40:18.447Z,3.00
2017-08-24T20:42:45.886Z,3.40
2017-08-24T20:45:13.330Z,3.40
2017-08-24T20:47:40.771Z,3.10
2017-08-24T20:50:08.210Z,3.60
2017-08-24T20:52:35.646Z,3.60
2017-08-24T20:55:03.094Z,4.10
2017-08-24T20:57:30.535Z,3.70
2017-08-24T20:59:58.084Z,3.00
2017-08-24T21:02:25.518Z,3.50
2017-08-24T21:04:52.952Z,2.90
2017-08-24T21:07:20.386Z,3.13
2017-08-24T21:09:47.826Z,3.20
2017-08-24T21:12:15.275Z,3.23
2017-08-24T21:14:42.723Z,3.30
2017-08-24T21:17:10.154Z,3.30
2017-08-24T21:19:37.595Z,3.10
2017-08-24T21:22:05.035Z,3.40
2017-08-24T21:24:32.476Z,3.43
2017-08-24T21:26:59.908Z,3.60
2017-08-24T21:29:27.350Z,2.83
2017-08-24T21:31:54.807Z,2.83
2017-08-24T21:34:22.246Z,3.33
2017-08-24T21:36:49.682Z,3.00
2017-08-24T21:39:17.132Z,2.83
2017-08-24T21:41:44.570Z,2.73
2017-08-24T21:44:12.039Z,2.90
2017-08-24T21:46:39.466Z,2.40
2017-08-24T21:49:06.913Z,2.50
2017-08-24T21:51:35.114Z,2.70
2017-08-24T21:54:02.566Z,2.70
2017-08-24T21:56:30.007Z,2.47
2017-08-24T21:58:57.450Z,2.60
2017-08-24T22:01:24.900Z,2.47
2017-08-24T22:03:52.373Z,2.30
2017-08-24T22:06:19.812Z,2.60
2017-08-24T22:08:47.271Z,2.70
2017-08-24T22:11:14.723Z,2.80
2017-08-24T22:13:42.167Z,3.07
2017-08-24T22:16:09.607Z,2.67
2017-08-24T22:18:37.041Z,3.03
2017-08-24T22:21:04.496Z,2.33
2017-08-24T22:23:31.925Z,2.80
2017-08-24T22:25:59.384Z,3.00
2017-08-24T22:28:26.820Z,2.60
2017-08-24T22:30:54.274Z,2.10
2017-08-24T22:33:21.713Z,2.90
2017-08-24T22:35:49.158Z,2.70
2017-08-24T22:38:16.594Z,2.67
2017-08-24T22:40:44.035Z,2.60
2017-08-24T22:43:11.485Z,2.33
2017-08-24T22:45:38.923Z,3.03
2017-08-24T22:48:06.365Z,2.73
2017-08-24T22:50:33.806Z,2.40
2017-08-24T22:56:08.866Z,3.10
2017-08-24T22:58:42.062Z,1.97
2017-08-24T23:01:15.251Z,2.00
2017-08-24T23:03:48.391Z,2.80
2017-08-24T23:06:15.831Z,2.77
2017-08-24T23:08:43.275Z,2.40
2017-08-24T23:11:10.722Z,2.07
2017-08-24T23:13:38.166Z,2.20
2017-08-24T23:16:05.633Z,2.50
2017-08-24T23:18:33.079Z,2.33
2017-08-24T23:21:00.524Z,2.50
2017-08-24T23:23:27.966Z,2.37
2017-08-24T23:25:55.398Z,2.07
2017-08-24T23:28:22.843Z,2.67
2017-08-24T23:30:50.289Z,2.93
2017-08-24T23:33:17.722Z,2.37
2017-08-24T23:35:45.169Z,2.60
2017-08-24T23:38:12.614Z,2.17
2017-08-24T23:40:40.062Z,2.37
2017-08-24T23:43:07.502Z,2.70
2017-08-24T23:45:34.944Z,2.53
2017-08-24T23:48:02.383Z,2.50
2017-08-24T23:50:29.826Z,2.50
2017-08-24T23:52:57.278Z,2.67
2017-08-24T23:55:24.718Z,2.77
2017-08-24T23:57:52.177Z,2.20
